Time;durP1;ratioP1;P1;durP2;ratioP2;P2;SDS_P1;SDS_P2;PMS_P1;PMS_P2;Temp;Humidity;BMP_temperature;BMP_pressure;BME280_temperature;BME280_humidity;BME280_pressure;Samples;Min_cycle;Max_cycle;Signal;HPM_P1;HPM_P2
2024/03/19 00:02:00;;;;;;;104.13;49.47;;;7.00;99.90;;;;;;4981859;28;20040;-68
2024/03/19 00:04:26;;;;;;;110.15;51.58;;;6.80;99.90;;;;;;4967002;28;20077;-70
2024/03/19 00:06:52;;;;;;;112.45;51.95;;;6.80;99.90;;;;;;4968107;28;20054;-67
2024/03/19 00:09:18;;;;;;;114.13;52.50;;;6.70;99.90;;;;;;4965858;28;20066;-68
2024/03/19 00:11:44;;;;;;;100.78;50.58;;;6.50;99.90;;;;;;4979817;28;20042;-69
2024/03/19 00:14:11;;;;;;;99.70;49.85;;;6.50;99.90;;;;;;4952771;28;20053;-68
2024/03/19 00:16:37;;;;;;;108.72;50.20;;;6.40;99.90;;;;;;4949393;28;20043;-68
2024/03/19 00:19:03;;;;;;;94.95;45.35;;;6.30;99.90;;;;;;4964688;28;20546;-68
2024/03/19 00:21:29;;;;;;;106.18;46.00;;;6.30;99.90;;;;;;4937210;28;20097;-69
2024/03/19 00:23:56;;;;;;;97.20;47.17;;;6.10;99.90;;;;;;4964765;28;20054;-68
2024/03/19 00:26:22;;;;;;;115.40;54.00;;;6.10;99.90;;;;;;4977782;28;21081;-69
2024/03/19 00:28:48;;;;;;;118.90;52.38;;;6.20;99.90;;;;;;4955662;28;20069;-69
2024/03/19 00:31:14;;;;;;;111.88;52.20;;;6.10;99.90;;;;;;4971793;28;20050;-70
2024/03/19 00:33:40;;;;;;;126.80;53.50;;;6.10;99.90;;;;;;4966226;28;20069;-68
2024/03/19 00:36:09;;;;;;;128.52;52.13;;;6.10;99.90;;;;;;4959674;28;20037;-68
2024/03/19 00:38:35;;;;;;;149.90;57.25;;;6.20;99.90;;;;;;4956512;28;21446;-69
2024/03/19 00:41:02;;;;;;;122.05;51.90;;;6.30;99.90;;;;;;4963081;28;20053;-69
2024/03/19 00:43:29;;;;;;;123.07;52.28;;;6.30;99.90;;;;;;4952565;28;20451;-69
2024/03/19 00:45:55;;;;;;;103.57;45.45;;;6.20;99.90;;;;;;4961402;28;20084;-69
2024/03/19 00:48:21;;;;;;;141.65;55.83;;;6.10;99.90;;;;;;4957346;28;20042;-69
2024/03/19 00:50:47;;;;;;;149.93;56.90;;;6.10;99.90;;;;;;4938209;28;20574;-69
2024/03/19 00:53:13;;;;;;;150.40;59.55;;;6.10;99.90;;;;;;4968068;28;20054;-68
2024/03/19 00:55:40;;;;;;;132.32;53.80;;;6.30;99.90;;;;;;4951507;28;20715;-70
2024/03/19 00:58:06;;;;;;;114.85;53.35;;;6.20;99.90;;;;;;4970539;28;20042;-69
2024/03/19 01:00:32;;;;;;;163.95;57.35;;;6.30;99.90;;;;;;4972057;28;20040;-69
2024/03/19 01:02:58;;;;;;;153.98;54.80;;;6.20;99.90;;;;;;4958427;28;20030;-68
2024/03/19 01:05:25;;;;;;;117.82;51.83;;;6.20;99.90;;;;;;4959948;28;20659;-69
2024/03/19 01:07:51;;;;;;;94.85;48.08;;;6.20;99.90;;;;;;4941127;28;20054;-69
2024/03/19 01:10:18;;;;;;;92.22;46.63;;;6.20;99.90;;;;;;4942044;28;20049;-69
2024/03/19 01:12:44;;;;;;;94.50;47.50;;;6.10;99.90;;;;;;4960030;28;20061;-68
2024/03/19 01:15:11;;;;;;;106.60;47.65;;;6.10;99.90;;;;;;4935670;28;20895;-68
2024/03/19 01:17:39;;;;;;;92.40;45.65;;;6.00;99.90;;;;;;4954179;28;20042;-69
2024/03/19 01:20:11;;;;;;;88.72;44.88;;;6.00;99.90;;;;;;4951687;28;20053;-68
2024/03/19 01:22:38;;;;;;;88.40;43.72;;;5.90;99.90;;;;;;4953524;28;20097;-69
2024/03/19 01:25:06;;;;;;;88.97;44.85;;;5.80;99.90;;;;;;4953592;28;20050;-68
2024/03/19 01:27:35;;;;;;;105.10;47.80;;;5.60;99.90;;;;;;4968238;28;20050;-69
2024/03/19 01:30:02;;;;;;;84.65;44.65;;;5.70;99.90;;;;;;4962275;28;20041;-69
2024/03/19 01:32:29;;;;;;;104.10;45.80;;;5.60;99.90;;;;;;4940882;28;20070;-69
2024/03/19 01:34:55;;;;;;;93.25;44.67;;;5.60;99.90;;;;;;4950415;28;20054;-68
2024/03/19 01:37:22;;;;;;;118.93;48.53;;;5.50;99.90;;;;;;4951980;28;20570;-67
2024/03/19 01:39:48;;;;;;;120.82;50.35;;;5.40;99.90;;;;;;4957515;28;20534;-70
2024/03/19 01:42:14;;;;;;;114.57;48.88;;;5.40;99.90;;;;;;4956622;28;20062;-68
2024/03/19 01:44:40;;;;;;;118.15;50.15;;;5.40;99.90;;;;;;4956716;28;20130;-69
2024/03/19 01:47:08;;;;;;;126.82;50.22;;;5.30;99.90;;;;;;4969169;28;20034;-67
2024/03/19 01:49:35;;;;;;;130.43;53.45;;;5.40;99.90;;;;;;4952170;28;20141;-69
2024/03/19 01:52:02;;;;;;;139.35;54.03;;;5.20;99.90;;;;;;4970138;28;20035;-69
2024/03/19 01:54:32;;;;;;;140.73;54.90;;;5.20;99.90;;;;;;4951723;28;20060;-69
2024/03/19 01:56:58;;;;;;;136.85;52.53;;;5.10;99.90;;;;;;4970979;28;20051;-69
2024/03/19 01:59:24;;;;;;;135.05;53.70;;;5.10;99.90;;;;;;4967704;28;20038;-68
2024/03/19 02:01:51;;;;;;;137.52;52.40;;;5.20;99.90;;;;;;4979001;28;20044;-68
2024/03/19 02:04:17;;;;;;;177.43;56.10;;;5.10;99.90;;;;;;4952587;28;20051;-69
2024/03/19 02:06:43;;;;;;;200.85;61.38;;;5.20;99.90;;;;;;4955619;28;21560;-70
2024/03/19 02:09:12;;;;;;;151.57;53.55;;;5.10;99.90;;;;;;4932729;28;20043;-68
2024/03/19 02:11:38;;;;;;;262.27;63.22;;;5.00;99.90;;;;;;4949753;28;20050;-68
2024/03/19 02:14:05;;;;;;;344.20;70.93;;;4.90;99.90;;;;;;4956068;28;20058;-69
2024/03/19 02:16:32;;;;;;;637.53;97.15;;;4.90;99.90;;;;;;4956624;28;20050;-68
2024/03/19 02:19:01;;;;;;;375.52;73.57;;;4.90;99.90;;;;;;4953003;28;20158;-69
2024/03/19 02:21:30;;;;;;;584.45;90.45;;;4.80;99.90;;;;;;4950442;28;20546;-67
2024/03/19 02:23:57;;;;;;;494.73;86.03;;;4.60;99.90;;;;;;4953520;28;20050;-67
2024/03/19 02:26:29;;;;;;;784.15;115.75;;;4.70;99.90;;;;;;4967089;28;20047;-69
2024/03/19 02:28:59;;;;;;;555.85;91.95;;;4.80;99.90;;;;;;4954806;28;20053;-69
2024/03/19 02:31:27;;;;;;;310.67;72.85;;;4.90;99.90;;;;;;4948119;28;20062;-67
2024/03/19 02:33:55;;;;;;;269.50;70.70;;;4.90;99.90;;;;;;4973690;28;20058;-68
2024/03/19 02:36:22;;;;;;;619.25;93.00;;;4.90;99.90;;;;;;4965529;28;20034;-69
2024/03/19 02:38:48;;;;;;;373.98;75.55;;;4.90;99.90;;;;;;4972927;28;20081;-69
2024/03/19 02:41:14;;;;;;;455.50;80.65;;;4.80;99.90;;;;;;4966915;28;21655;-69
2024/03/19 02:43:41;;;;;;;317.67;70.30;;;4.80;99.90;;;;;;4972385;28;20046;-69
2024/03/19 02:46:07;;;;;;;311.27;66.75;;;4.70;99.90;;;;;;4968592;28;20047;-69
2024/03/19 02:48:34;;;;;;;543.95;89.13;;;4.60;99.90;;;;;;4958640;28;20054;-68
2024/03/19 02:51:00;;;;;;;578.80;96.65;;;4.60;99.90;;;;;;4952224;28;20045;-69
2024/03/19 02:53:27;;;;;;;262.80;66.50;;;4.60;99.90;;;;;;4955423;28;20045;-67
2024/03/19 02:55:54;;;;;;;622.47;99.22;;;4.60;99.90;;;;;;4953110;28;20050;-68
2024/03/19 02:58:20;;;;;;;481.27;82.43;;;4.50;99.90;;;;;;4974096;28;20125;-69
2024/03/19 03:00:46;;;;;;;587.00;90.93;;;4.50;99.90;;;;;;4939856;28;20695;-68
2024/03/19 03:03:12;;;;;;;739.70;105.90;;;4.50;99.90;;;;;;4952408;28;20053;-71
2024/03/19 03:05:45;;;;;;;698.92;101.60;;;4.50;99.90;;;;;;4952172;28;20043;-71
2024/03/19 03:08:11;;;;;;;689.47;96.03;;;4.40;99.90;;;;;;4969697;28;20042;-68
2024/03/19 03:10:37;;;;;;;773.20;99.40;;;4.40;99.90;;;;;;4965622;28;20058;-69
2024/03/19 03:13:04;;;;;;;822.08;104.22;;;4.50;99.90;;;;;;4953479;28;20435;-68
2024/03/19 03:15:30;;;;;;;731.25;103.40;;;4.40;99.90;;;;;;4955406;28;20490;-68
2024/03/19 03:17:56;;;;;;;634.70;95.75;;;4.30;99.90;;;;;;4960413;28;20053;-68
2024/03/19 03:20:23;;;;;;;429.08;78.60;;;4.30;99.90;;;;;;4948676;28;20129;-69
2024/03/19 03:22:50;;;;;;;700.15;97.40;;;4.20;99.90;;;;;;4937777;28;20050;-68
2024/03/19 03:25:16;;;;;;;776.05;100.97;;;4.30;99.90;;;;;;4946810;28;20050;-67
2024/03/19 03:27:43;;;;;;;807.85;108.38;;;4.30;99.90;;;;;;4947562;28;20058;-68
2024/03/19 03:30:11;;;;;;;680.00;100.38;;;4.40;99.90;;;;;;4950186;28;20046;-69
2024/03/19 03:32:38;;;;;;;703.92;96.25;;;4.30;99.90;;;;;;4952349;28;20069;-68
2024/03/19 03:35:06;;;;;;;690.83;98.30;;;4.40;99.90;;;;;;4965473;28;20089;-68
2024/03/19 03:37:32;;;;;;;600.28;98.13;;;4.30;99.90;;;;;;4971026;28;20726;-67
2024/03/19 03:39:58;;;;;;;568.00;99.35;;;4.10;99.90;;;;;;4978631;28;20141;-68
2024/03/19 03:42:24;;;;;;;463.13;82.38;;;4.10;99.90;;;;;;4932102;28;20074;-68
2024/03/19 03:44:51;;;;;;;606.90;91.53;;;4.00;99.90;;;;;;4936971;28;20055;-69
2024/03/19 03:47:17;;;;;;;587.60;90.65;;;4.00;99.90;;;;;;4970714;28;20043;-67
2024/03/19 03:49:45;;;;;;;476.35;80.40;;;4.10;99.90;;;;;;4969277;28;20051;-70
2024/03/19 03:52:11;;;;;;;533.58;88.72;;;4.10;99.90;;;;;;4974362;28;20033;-69
2024/03/19 03:54:38;;;;;;;458.70;77.57;;;4.00;99.90;;;;;;4937450;28;20343;-68
2024/03/19 03:57:04;;;;;;;540.60;88.57;;;4.00;99.90;;;;;;4943709;28;20070;-69
2024/03/19 03:59:31;;;;;;;657.22;98.35;;;4.00;99.90;;;;;;4956212;28;20041;-69
2024/03/19 04:01:57;;;;;;;438.85;80.95;;;4.10;99.90;;;;;;4953866;28;20309;-68
2024/03/19 04:04:23;;;;;;;403.85;79.38;;;4.10;99.90;;;;;;4953844;28;20565;-69
2024/03/19 04:06:49;;;;;;;374.40;75.18;;;4.00;99.90;;;;;;4949148;28;20650;-69
2024/03/19 04:09:16;;;;;;;400.25;78.03;;;3.90;99.90;;;;;;4955074;28;20126;-67
2024/03/19 04:11:42;;;;;;;519.10;89.00;;;3.80;99.90;;;;;;4954533;28;20140;-67
2024/03/19 04:14:08;;;;;;;386.75;78.72;;;3.80;99.90;;;;;;4954194;28;20049;-68
2024/03/19 04:16:34;;;;;;;561.80;97.50;;;3.90;99.90;;;;;;4952889;28;20111;-69
2024/03/19 04:19:01;;;;;;;433.45;83.68;;;3.90;99.90;;;;;;4962260;28;20034;-69
2024/03/19 04:21:27;;;;;;;401.75;79.85;;;4.00;99.90;;;;;;4956319;28;20917;-68
2024/03/19 04:23:53;;;;;;;413.38;80.55;;;4.10;99.90;;;;;;4957885;28;20636;-68
2024/03/19 04:26:19;;;;;;;618.25;98.95;;;3.90;99.90;;;;;;4955760;28;20985;-68
2024/03/19 04:28:45;;;;;;;412.35;80.97;;;3.90;99.90;;;;;;4974704;28;20042;-70
2024/03/19 04:31:11;;;;;;;532.92;87.68;;;3.90;99.90;;;;;;4958005;28;20038;-68
2024/03/19 04:33:38;;;;;;;581.63;92.72;;;3.90;99.90;;;;;;4953850;28;20066;-69
2024/03/19 04:36:04;;;;;;;608.55;96.32;;;3.80;99.90;;;;;;4952596;28;20178;-68
2024/03/19 04:38:30;;;;;;;559.33;92.13;;;3.70;99.90;;;;;;4962994;28;20113;-66
2024/03/19 04:40:56;;;;;;;666.20;100.28;;;3.70;99.90;;;;;;4955088;28;20039;-70
2024/03/19 04:43:23;;;;;;;605.75;95.63;;;3.70;99.90;;;;;;4955897;28;20042;-71
2024/03/19 04:45:49;;;;;;;698.22;106.15;;;3.70;99.90;;;;;;4966429;28;20081;-71
2024/03/19 04:48:15;;;;;;;558.83;92.85;;;3.70;99.90;;;;;;4956768;28;20047;-71
2024/03/19 04:50:41;;;;;;;668.90;99.30;;;3.60;99.90;;;;;;4960921;28;20380;-70
2024/03/19 04:53:07;;;;;;;650.33;97.85;;;3.60;99.90;;;;;;4955027;28;20042;-70
2024/03/19 04:55:34;;;;;;;549.10;95.80;;;3.60;99.90;;;;;;4954911;28;20046;-69
2024/03/19 04:58:01;;;;;;;511.33;89.55;;;3.40;99.90;;;;;;4952671;28;20037;-70
2024/03/19 05:00:27;;;;;;;506.38;88.93;;;3.40;99.90;;;;;;4975976;28;20492;-71
2024/03/19 05:02:53;;;;;;;631.33;98.32;;;3.40;99.90;;;;;;4950550;28;20054;-70
2024/03/19 05:05:20;;;;;;;601.80;98.97;;;3.40;99.90;;;;;;4951147;28;20046;-69
2024/03/19 05:07:46;;;;;;;638.10;98.68;;;3.40;99.90;;;;;;4955701;28;20054;-71
2024/03/19 05:10:12;;;;;;;663.65;103.45;;;3.40;99.90;;;;;;4955396;28;20081;-71
2024/03/19 05:12:38;;;;;;;694.58;107.07;;;3.40;99.90;;;;;;4971558;28;20578;-69
2024/03/19 05:15:06;;;;;;;645.53;103.38;;;3.40;99.90;;;;;;4970077;28;20050;-72
2024/03/19 05:17:33;;;;;;;537.88;91.85;;;3.40;99.90;;;;;;4952772;28;20046;-70
2024/03/19 05:20:00;;;;;;;540.25;97.75;;;3.40;99.90;;;;;;4971993;28;20057;-70
2024/03/19 05:22:27;;;;;;;600.58;102.80;;;3.50;99.90;;;;;;4968441;28;20054;-71
2024/03/19 05:24:53;;;;;;;716.13;113.88;;;3.50;99.90;;;;;;4954218;28;20553;-71
2024/03/19 05:27:19;;;;;;;612.88;101.75;;;3.60;99.90;;;;;;4951888;28;20527;-69
2024/03/19 05:29:46;;;;;;;729.40;114.82;;;3.60;99.90;;;;;;4941634;28;20127;-68
2024/03/19 05:32:12;;;;;;;730.72;119.88;;;3.70;99.90;;;;;;4959795;28;20053;-69
2024/03/19 05:34:38;;;;;;;590.90;102.60;;;3.70;99.90;;;;;;4952071;28;20053;-69
2024/03/19 05:37:05;;;;;;;840.78;127.88;;;3.70;99.90;;;;;;4942590;28;20085;-67
2024/03/19 05:39:31;;;;;;;652.20;112.55;;;3.80;99.90;;;;;;4962003;28;20062;-71
2024/03/19 05:41:57;;;;;;;620.05;114.03;;;3.80;99.90;;;;;;4957475;28;21376;-71
2024/03/19 05:44:24;;;;;;;466.17;97.05;;;3.80;99.90;;;;;;4953729;28;20145;-71
2024/03/19 05:46:50;;;;;;;464.40;92.53;;;3.90;99.90;;;;;;4965450;28;20042;-72
2024/03/19 05:49:17;;;;;;;547.65;99.78;;;3.80;99.90;;;;;;4957963;28;20045;-71
2024/03/19 05:51:43;;;;;;;586.85;101.88;;;3.70;99.90;;;;;;4957303;28;20042;-70
2024/03/19 05:54:09;;;;;;;536.97;100.95;;;3.70;99.90;;;;;;4962558;28;20054;-70
2024/03/19 05:56:35;;;;;;;544.40;105.95;;;3.70;99.90;;;;;;4961106;28;20046;-68
2024/03/19 05:59:01;;;;;;;531.00;101.25;;;3.80;99.90;;;;;;4963870;28;20039;-69
2024/03/19 06:01:27;;;;;;;540.97;104.03;;;3.90;99.90;;;;;;4980173;28;20058;-69
2024/03/19 06:03:54;;;;;;;400.80;90.65;;;4.00;99.90;;;;;;4943506;28;20058;-68
2024/03/19 06:06:21;;;;;;;402.02;92.32;;;4.10;99.90;;;;;;4949401;28;20053;-69
2024/03/19 06:08:47;;;;;;;436.15;96.53;;;4.20;99.90;;;;;;4951638;28;20121;-68
2024/03/19 06:11:13;;;;;;;446.67;97.40;;;4.30;99.90;;;;;;4957211;28;20470;-68
2024/03/19 06:13:39;;;;;;;498.55;100.00;;;4.40;99.90;;;;;;4953070;28;20050;-68
2024/03/19 06:16:05;;;;;;;396.52;94.32;;;4.40;99.90;;;;;;4968531;28;20046;-69
2024/03/19 06:18:32;;;;;;;591.15;110.65;;;4.60;99.90;;;;;;4956622;28;20061;-68
2024/03/19 06:20:58;;;;;;;449.55;97.60;;;4.80;99.90;;;;;;4971160;28;20424;-68
2024/03/19 06:23:27;;;;;;;389.33;94.65;;;5.00;99.90;;;;;;4962000;28;21927;-68
2024/03/19 06:25:53;;;;;;;498.33;100.03;;;5.00;99.90;;;;;;4955447;28;20045;-68
2024/03/19 06:28:19;;;;;;;484.40;103.72;;;5.10;99.90;;;;;;4956311;28;20073;-69
2024/03/19 06:30:46;;;;;;;379.75;91.88;;;5.10;99.90;;;;;;4937010;28;20046;-68
2024/03/19 06:33:12;;;;;;;276.55;81.75;;;5.20;99.90;;;;;;4941577;28;20050;-69
2024/03/19 06:35:40;;;;;;;332.40;87.20;;;5.20;99.90;;;;;;4957076;28;20050;-69
2024/03/19 06:38:07;;;;;;;374.48;92.05;;;5.30;99.90;;;;;;4963923;28;20761;-69
2024/03/19 06:40:33;;;;;;;319.77;85.50;;;5.50;99.90;;;;;;4960476;28;20034;-69
2024/03/19 06:42:59;;;;;;;365.45;92.00;;;5.60;99.90;;;;;;4955097;28;20073;-69
2024/03/19 06:45:26;;;;;;;345.17;91.80;;;5.60;99.90;;;;;;4973450;28;20045;-67
2024/03/19 06:47:53;;;;;;;436.27;102.97;;;5.70;99.90;;;;;;4936540;28;20058;-70
2024/03/19 06:50:19;;;;;;;447.40;104.63;;;5.90;99.90;;;;;;4955236;28;20443;-70
2024/03/19 06:52:46;;;;;;;406.73;97.40;;;6.10;99.90;;;;;;4938757;28;20058;-68
2024/03/19 06:55:12;;;;;;;382.83;96.00;;;6.20;99.90;;;;;;4960400;28;20045;-69
2024/03/19 06:57:42;;;;;;;310.25;85.15;;;6.30;99.90;;;;;;4958302;28;20491;-69
2024/03/19 07:00:14;;;;;;;401.85;97.70;;;6.40;99.90;;;;;;4973094;28;20451;-69
2024/03/19 07:02:41;;;;;;;529.28;110.85;;;6.50;99.90;;;;;;4972000;28;20097;-69
2024/03/19 07:05:09;;;;;;;430.67;96.28;;;6.60;99.90;;;;;;4952934;28;20662;-68
2024/03/19 07:07:35;;;;;;;555.55;108.57;;;6.70;99.90;;;;;;4949777;28;20047;-69
2024/03/19 07:10:05;;;;;;;310.92;85.35;;;6.80;99.90;;;;;;4939745;28;20874;-68
2024/03/19 07:12:32;;;;;;;430.23;101.28;;;6.90;99.90;;;;;;4958165;28;20763;-69
2024/03/19 07:15:01;;;;;;;336.25;87.93;;;7.10;99.90;;;;;;4972126;28;20224;-69
2024/03/19 07:17:30;;;;;;;402.45;96.82;;;7.20;99.90;;;;;;4971565;28;20147;-68
2024/03/19 07:19:58;;;;;;;385.10;95.57;;;7.30;99.90;;;;;;4937828;28;20047;-69
2024/03/19 07:22:25;;;;;;;417.73;98.35;;;7.30;99.90;;;;;;4958008;28;20171;-69
2024/03/19 07:24:51;;;;;;;326.10;88.35;;;7.40;99.90;;;;;;4938726;28;20065;-69
2024/03/19 07:27:17;;;;;;;262.60;77.93;;;7.50;99.90;;;;;;4954243;28;20030;-70
2024/03/19 07:29:43;;;;;;;263.38;80.25;;;7.60;99.90;;;;;;4939194;28;20053;-69
2024/03/19 07:32:10;;;;;;;307.15;84.95;;;7.80;99.90;;;;;;4969202;28;20047;-69
2024/03/19 07:34:37;;;;;;;226.77;72.57;;;7.80;99.90;;;;;;4957693;28;20546;-70
2024/03/19 07:37:04;;;;;;;256.52;80.10;;;7.90;99.90;;;;;;4967952;28;20650;-70
2024/03/19 07:39:30;;;;;;;244.02;76.90;;;8.10;99.90;;;;;;4969525;28;20044;-70
2024/03/19 07:41:58;;;;;;;220.50;76.82;;;8.20;99.90;;;;;;4964952;28;20121;-70
2024/03/19 07:44:25;;;;;;;234.30;75.72;;;8.30;99.90;;;;;;4939717;28;20628;-70
2024/03/19 07:46:51;;;;;;;204.88;73.80;;;8.40;99.90;;;;;;4947489;28;20050;-70
2024/03/19 07:49:17;;;;;;;211.95;73.57;;;8.50;99.90;;;;;;4971906;28;20046;-69
2024/03/19 07:51:43;;;;;;;193.27;65.97;;;8.70;99.90;;;;;;4969948;28;20101;-70
2024/03/19 07:54:10;;;;;;;196.23;67.93;;;8.80;99.90;;;;;;4954252;28;20050;-71
2024/03/19 07:56:40;;;;;;;152.25;57.03;;;8.90;99.90;;;;;;4956837;28;20054;-69
2024/03/19 07:59:07;;;;;;;135.20;51.63;;;8.90;99.90;;;;;;4957335;28;20062;-70
2024/03/19 08:01:33;;;;;;;133.43;47.47;;;9.00;99.90;;;;;;4970338;28;20050;-69
2024/03/19 08:03:59;;;;;;;124.80;47.53;;;9.00;99.90;;;;;;4964556;28;20051;-69
2024/03/19 08:06:27;;;;;;;123.72;46.10;;;9.00;99.90;;;;;;4969543;28;20074;-69
2024/03/19 08:08:53;;;;;;;104.63;42.47;;;9.00;99.90;;;;;;4965909;28;20658;-70
2024/03/19 08:11:19;;;;;;;99.07;42.08;;;9.00;99.90;;;;;;4938938;28;20039;-70
2024/03/19 08:13:46;;;;;;;94.95;41.88;;;9.10;99.90;;;;;;4935024;28;20181;-69
2024/03/19 08:16:15;;;;;;;94.80;42.72;;;9.10;99.90;;;;;;4925558;28;20157;-69
2024/03/19 08:18:42;;;;;;;94.47;41.42;;;9.10;99.90;;;;;;4950349;28;20057;-69
2024/03/19 08:21:08;;;;;;;85.40;40.50;;;9.30;99.90;;;;;;4950500;28;20721;-71
2024/03/19 08:23:35;;;;;;;74.43;38.22;;;9.30;99.90;;;;;;4934418;28;20115;-71
2024/03/19 08:26:01;;;;;;;69.00;36.83;;;9.30;99.90;;;;;;4927141;28;20724;-70
2024/03/19 08:28:28;;;;;;;67.53;35.17;;;9.50;99.90;;;;;;4958543;28;20042;-69
2024/03/19 08:30:53;;;;;;;66.38;33.80;;;9.60;99.90;;;;;;4973961;28;20030;-68
2024/03/19 08:33:20;;;;;;;63.03;34.17;;;9.60;99.90;;;;;;4972740;28;20062;-69
2024/03/19 08:35:46;;;;;;;59.80;30.65;;;9.80;99.90;;;;;;4950278;28;20046;-70
2024/03/19 08:38:12;;;;;;;57.03;30.15;;;9.80;99.90;;;;;;4968889;28;20175;-69
2024/03/19 08:40:38;;;;;;;53.83;28.88;;;9.90;99.90;;;;;;4954986;28;20050;-70
2024/03/19 08:43:04;;;;;;;49.72;27.35;;;10.00;99.90;;;;;;4968384;28;20080;-70
2024/03/19 08:45:30;;;;;;;48.47;27.15;;;10.00;99.90;;;;;;4940121;28;20047;-69
2024/03/19 08:47:57;;;;;;;50.92;27.05;;;10.00;99.90;;;;;;4938922;28;20051;-69
2024/03/19 08:50:23;;;;;;;42.25;27.90;;;10.00;99.90;;;;;;4954900;28;20038;-70
2024/03/19 08:52:49;;;;;;;42.63;27.67;;;10.30;99.90;;;;;;4952514;28;20050;-71
2024/03/19 08:55:15;;;;;;;43.80;28.88;;;10.50;99.90;;;;;;4954997;28;20054;-69
2024/03/19 08:57:42;;;;;;;41.78;29.70;;;10.80;99.90;;;;;;4970186;28;20412;-71
2024/03/19 09:00:15;;;;;;;43.33;30.55;;;10.90;99.90;;;;;;4966345;28;20121;-71
2024/03/19 09:02:43;;;;;;;44.80;33.22;;;10.90;99.90;;;;;;4951289;28;20050;-71
2024/03/19 09:05:09;;;;;;;38.58;30.45;;;11.00;99.90;;;;;;4965100;28;20507;-69
2024/03/19 09:07:40;;;;;;;38.65;32.40;;;11.30;99.90;;;;;;4954323;28;20043;-71
2024/03/19 09:10:09;;;;;;;43.05;32.13;;;11.40;99.90;;;;;;4950903;28;20050;-69
2024/03/19 09:12:36;;;;;;;34.67;30.77;;;11.70;99.90;;;;;;4971896;28;20045;-69
2024/03/19 09:15:06;;;;;;;41.30;34.35;;;11.80;99.90;;;;;;4966547;28;20048;-71
2024/03/19 09:17:32;;;;;;;38.38;33.20;;;11.90;99.90;;;;;;4969363;28;20538;-71
2024/03/19 09:19:59;;;;;;;36.42;32.50;;;11.90;99.90;;;;;;4968821;28;20042;-70
2024/03/19 09:22:25;;;;;;;39.95;33.53;;;12.20;99.90;;;;;;4953551;28;20046;-70
2024/03/19 09:24:51;;;;;;;38.47;34.58;;;12.40;99.90;;;;;;4956855;28;20066;-70
2024/03/19 09:27:17;;;;;;;39.22;35.30;;;12.50;99.90;;;;;;4954195;28;20050;-70
2024/03/19 09:29:43;;;;;;;39.28;34.90;;;12.90;99.90;;;;;;4967082;28;20058;-71
2024/03/19 09:32:09;;;;;;;38.15;34.33;;;13.10;99.90;;;;;;4951821;28;20125;-70
2024/03/19 09:34:35;;;;;;;37.55;34.05;;;13.30;99.90;;;;;;4935133;28;20204;-69
2024/03/19 09:37:01;;;;;;;42.08;38.25;;;13.40;99.90;;;;;;4949989;28;20093;-69
2024/03/19 09:39:27;;;;;;;45.50;41.38;;;13.40;99.90;;;;;;4951584;28;20047;-70
2024/03/19 09:42:18;;;;;;;46.22;41.85;;;13.50;99.90;;;;;;4947591;28;20053;-70
2024/03/19 09:44:44;;;;;;;43.13;39.17;;;13.50;99.90;;;;;;4967605;28;20057;-70
2024/03/19 09:47:16;;;;;;;44.92;40.97;;;13.60;99.90;;;;;;4953574;28;20045;-71
2024/03/19 09:49:42;;;;;;;44.72;40.83;;;13.50;99.90;;;;;;4938887;28;20054;-71
2024/03/19 09:52:09;;;;;;;46.10;41.65;;;13.50;99.90;;;;;;4952692;28;20057;-70
2024/03/19 09:54:35;;;;;;;45.60;41.47;;;13.50;99.90;;;;;;4954994;28;20101;-70
2024/03/19 09:57:04;;;;;;;43.58;40.10;;;13.50;99.90;;;;;;4951074;28;20050;-71
2024/03/19 09:59:31;;;;;;;44.42;40.85;;;13.80;99.90;;;;;;4943643;28;20050;-70
2024/03/19 10:01:57;;;;;;;45.55;41.05;;;14.10;99.90;;;;;;4949350;28;20047;-69
2024/03/19 10:04:24;;;;;;;46.25;42.45;;;14.10;99.90;;;;;;4938347;28;20055;-69
2024/03/19 10:06:51;;;;;;;47.50;43.85;;;14.30;99.90;;;;;;4957396;28;20103;-69
2024/03/19 10:09:17;;;;;;;43.50;39.97;;;14.30;99.90;;;;;;4942074;28;20703;-72
2024/03/19 10:11:45;;;;;;;46.78;42.88;;;14.30;99.90;;;;;;4975214;28;20104;-70
2024/03/19 10:14:12;;;;;;;45.72;42.35;;;14.20;99.90;;;;;;4970463;28;20042;-70
2024/03/19 10:16:50;;;;;;;48.10;44.40;;;14.40;99.90;;;;;;4953288;28;20042;-69
2024/03/19 10:19:19;;;;;;;47.35;43.70;;;14.80;99.90;;;;;;4955378;28;20042;-69
2024/03/19 10:21:45;;;;;;;47.47;43.67;;;14.90;99.90;;;;;;4957917;28;20050;-70
2024/03/19 10:24:16;;;;;;;46.60;43.05;;;15.00;99.90;;;;;;4966274;28;20054;-71
2024/03/19 10:26:43;;;;;;;46.72;43.08;;;14.80;99.90;;;;;;4955179;28;20046;-69
2024/03/19 10:29:18;;;;;;;46.60;42.90;;;14.60;99.90;;;;;;4952733;28;21376;-70
2024/03/19 10:31:48;;;;;;;46.40;42.70;;;14.80;99.90;;;;;;4953111;28;20058;-70
2024/03/19 10:34:23;;;;;;;43.75;40.28;;;15.10;99.90;;;;;;4937405;28;20053;-71
2024/03/19 10:36:51;;;;;;;47.53;43.05;;;14.90;99.90;;;;;;4937869;28;20042;-69
2024/03/19 10:39:21;;;;;;;44.92;41.25;;;14.70;99.90;;;;;;4971286;28;20034;-71
2024/03/19 10:41:51;;;;;;;45.03;41.25;;;14.50;99.90;;;;;;4971647;28;20049;-71
2024/03/19 10:44:19;;;;;;;46.72;42.85;;;14.70;99.90;;;;;;4956135;28;20053;-70
2024/03/19 10:46:47;;;;;;;45.15;41.45;;;15.00;99.90;;;;;;4968771;28;20092;-69
2024/03/19 10:49:16;;;;;;;47.05;42.88;;;15.20;99.90;;;;;;4974421;28;20119;-69
2024/03/19 10:51:48;;;;;;;45.90;41.92;;;15.40;99.90;;;;;;4941779;28;20538;-71
2024/03/19 10:54:18;;;;;;;47.40;43.80;;;15.30;99.90;;;;;;4968661;28;20101;-71
2024/03/19 10:56:44;;;;;;;47.33;43.25;;;15.30;99.90;;;;;;4955311;28;20050;-69
2024/03/19 10:59:13;;;;;;;46.72;42.60;;;15.10;99.90;;;;;;4954183;28;20443;-71
2024/03/19 11:01:46;;;;;;;46.35;42.40;;;15.10;99.90;;;;;;4974113;28;20046;-70
2024/03/19 11:04:15;;;;;;;46.47;42.85;;;15.00;99.90;;;;;;4949560;28;20061;-69
2024/03/19 11:06:42;;;;;;;48.63;44.15;;;15.10;99.90;;;;;;4969986;28;20065;-69
2024/03/19 11:09:22;;;;;;;45.63;41.92;;;15.30;99.90;;;;;;4955216;28;20082;-70
2024/03/19 11:11:55;;;;;;;47.88;43.97;;;15.30;99.90;;;;;;4971659;28;20050;-70
2024/03/19 11:14:25;;;;;;;49.08;44.88;;;15.30;99.90;;;;;;4938218;28;20073;-70
2024/03/19 11:16:53;;;;;;;49.75;45.65;;;15.40;99.90;;;;;;4969588;28;20047;-70
2024/03/19 11:19:21;;;;;;;48.92;45.10;;;15.40;99.90;;;;;;4956650;28;20050;-71
2024/03/19 11:21:52;;;;;;;49.47;45.47;;;15.30;99.90;;;;;;4954240;28;20057;-71
2024/03/19 11:24:23;;;;;;;48.25;44.08;;;15.30;99.90;;;;;;4963860;28;20051;-71
2024/03/19 11:27:07;;;;;;;48.20;43.88;;;15.30;99.90;;;;;;4965595;28;20038;-70
2024/03/19 11:29:37;;;;;;;49.33;44.87;;;15.40;99.90;;;;;;4953441;28;20070;-71
2024/03/19 11:32:07;;;;;;;48.45;44.13;;;15.50;99.90;;;;;;4962453;28;20051;-71
2024/03/19 11:34:34;;;;;;;47.75;43.65;;;15.80;99.90;;;;;;4963508;28;20105;-69
2024/03/19 11:37:00;;;;;;;47.53;43.58;;;15.80;99.90;;;;;;4978452;28;20057;-70
2024/03/19 11:39:27;;;;;;;44.72;40.53;;;16.10;99.90;;;;;;4971685;28;20042;-71
2024/03/19 11:41:55;;;;;;;45.95;41.95;;;16.30;99.90;;;;;;4969920;28;20168;-68
2024/03/19 11:44:24;;;;;;;49.70;44.97;;;16.40;99.90;;;;;;4949851;28;20045;-70
2024/03/19 11:46:52;;;;;;;48.30;44.00;;;16.40;99.90;;;;;;4948801;28;20057;-70
2024/03/19 11:49:26;;;;;;;47.78;43.90;;;16.40;99.90;;;;;;4967590;28;20061;-71
2024/03/19 11:52:08;;;;;;;46.63;42.47;;;16.40;99.90;;;;;;4949218;28;20051;-70
2024/03/19 11:54:40;;;;;;;51.58;47.50;;;16.30;99.90;;;;;;4951538;28;20058;-69
2024/03/19 11:57:07;;;;;;;51.30;47.22;;;16.40;99.90;;;;;;4950728;28;20074;-70
2024/03/19 11:59:34;;;;;;;51.95;47.60;;;16.40;99.90;;;;;;4955372;28;20037;-71
2024/03/19 12:02:02;;;;;;;46.65;42.75;;;16.40;99.90;;;;;;4948536;28;20598;-69
2024/03/19 12:04:32;;;;;;;49.65;45.53;;;16.60;99.90;;;;;;4932347;28;20047;-70
2024/03/19 12:06:58;;;;;;;51.05;47.05;;;16.60;99.90;;;;;;4966059;28;20408;-69
2024/03/19 12:09:28;;;;;;;53.55;49.03;;;16.60;99.90;;;;;;4953810;28;20046;-71
2024/03/19 12:11:55;;;;;;;52.55;48.13;;;16.90;99.90;;;;;;4970558;28;20081;-70
2024/03/19 12:14:23;;;;;;;51.53;46.97;;;16.90;99.90;;;;;;4965238;28;20069;-71
2024/03/19 12:16:50;;;;;;;54.47;50.05;;;17.00;99.90;;;;;;4953483;28;20511;-70
2024/03/19 12:19:19;;;;;;;53.17;48.67;;;16.60;99.90;;;;;;4967213;28;20042;-69
2024/03/19 12:21:49;;;;;;;49.53;45.25;;;16.40;99.90;;;;;;4945849;28;20061;-69
2024/03/19 12:24:19;;;;;;;49.40;45.42;;;16.40;99.90;;;;;;4948312;28;21220;-70
2024/03/19 12:26:50;;;;;;;48.33;44.30;;;16.40;99.90;;;;;;4953624;28;20046;-69